Terminal Aerodrome Forecast
Issued by NWS

Current Version | Previous Version | Text Only | Print | Product List | Glossary Off
Versions: 1 2 3 4 5 6 7 8 9 10 11 12 13 14 15 16 17 18 19 20 21 22 23 24 25 26 27 28 29

000
FTUS41 KILN 040927 AAA
TAFLCK
TAF AMD
KLCK 040927Z 0409/0506 VRB03KT P6SM VCSH BKN040
      TEMPO 0410/0412 4SM BR
     FM041300 21005KT P6SM SCT040 BKN200
     FM041700 21008KT P6SM VCTS BKN040CB
     FM050100 VRB03KT P6SM SCT040 BKN120=

USA.gov is the U.S. government's official web portal to all federal, state and local government web resources and services.